Observation data for Spur on 12/09/2018      Previous  Date       Current Mesonet Observations  Soil Data  Daily Summary Page  Observations in Plain Language
KSP1 090600Z 35007KT M06/M06 A303 RMK A01 T10581063  RH  096%=      5-min Rain = 0
KSP1 090605Z 35007KT M06/M06 A3031 RMK A01 T10591064  RH  096%=      5-min Rain = 0
KSP1 090610Z 34007KT M06/M06 A3031 RMK A01 T10581063  RH  096%=      5-min Rain = 0
KSP1 090615Z 34007KT M06/M06 A3031 RMK A01 T10581064  RH  096%=      5-min Rain = 0
KSP1 090620Z 34007KT M06/M06 A3031 RMK A01 T10571063  RH  096%=      5-min Rain = 0
KSP1 090625Z 33007KT M06/M06 A3031 RMK A01 T10561062  RH  096%=      5-min Rain = 0
KSP1 090630Z 33008KT M06/M06 A3031 RMK A01 T10551062  RH  096%=      5-min Rain = 0
KSP1 090635Z 34008KT M05/M06 A3031 RMK A01 T10531059  RH  096%=      5-min Rain = 0
KSP1 090640Z 34009KT M05/M06 A3031 RMK A01 T10521060  RH  094%=      5-min Rain = 0
KSP1 090645Z 34008KT M05/M06 A3031 RMK A01 T10521060  RH  094%=      5-min Rain = 0
KSP1 090650Z 34008KT M05/M06 A3031 RMK A01 T10501058  RH  094%=      5-min Rain = 0
KSP1 090655Z 34007KT M05/M06 A3031 RMK A01 T10501059  RH  094%=      5-min Rain = 0
KSP1 090700Z 34007KT M05/M06 A3031 RMK A01 T10511060  RH  094%=      5-min Rain = 0
KSP1 090705Z 33008KT M05/M06 A3031 RMK A01 T10511059  RH  094%=      5-min Rain = 0
KSP1 090710Z 33008KT M05/M06 A3031 RMK A01 T10491057  RH  094%=      5-min Rain = 0
KSP1 090715Z 34008KT M05/M06 A3031 RMK A01 T10491058  RH  094%=      5-min Rain = 0
KSP1 090720Z 34008KT M05/M06 A3031 RMK A01 T10501059  RH  094%=      5-min Rain = 0
KSP1 090725Z 34008KT M05/M06 A3031 RMK A01 T10501058  RH  094%=      5-min Rain = 0
KSP1 090730Z 34008KT M05/M06 A303 RMK A01 T10481055  RH  095%=      5-min Rain = 0
KSP1 090735Z 34007KT M05/M06 A303 RMK A01 T10471055  RH  094%=      5-min Rain = 0
KSP1 090740Z 34007KT M05/M05 A303 RMK A01 T10461054  RH  094%=      5-min Rain = 0
KSP1 090745Z 34007KT M05/M06 A303 RMK A01 T10471055  RH  094%=      5-min Rain = 0
KSP1 090750Z 34007KT M05/M05 A303 RMK A01 T10461054  RH  095%=      5-min Rain = 0
KSP1 090755Z 34006KT M05/M06 A303 RMK A01 T10471056  RH  094%=      5-min Rain = 0
KSP1 090800Z 34006KT M05/M06 A303 RMK A01 T10501059  RH  094%=      5-min Rain = 0
KSP1 090805Z 35006KT M05/M06 A303 RMK A01 T10511058  RH  095%=      5-min Rain = 0
KSP1 090810Z 36005KT M05/M06 A303 RMK A01 T10491056  RH  095%=      5-min Rain = 0
KSP1 090815Z 00006KT M05/M06 A303 RMK A01 T10491057  RH  095%=      5-min Rain = 0
KSP1 090820Z 35006KT M05/M06 A303 RMK A01 T10491057  RH  095%=      5-min Rain = 0
KSP1 090825Z 34007KT M05/M06 A303 RMK A01 T10511059  RH  094%=      5-min Rain = 0
KSP1 090830Z 34007KT M05/M06 A303 RMK A01 T10521060  RH  094%=      5-min Rain = 0
KSP1 090835Z 35007KT M05/M06 A303 RMK A01 T10531061  RH  094%=      5-min Rain = 0
KSP1 090840Z 34008KT M05/M06 A303 RMK A01 T10541062  RH  094%=      5-min Rain = 0
KSP1 090845Z 35007KT M05/M06 A303 RMK A01 T10541062  RH  094%=      5-min Rain = 0
KSP1 090850Z 35007KT M05/M06 A303 RMK A01 T10541062  RH  094%=      5-min Rain = 0
KSP1 090855Z 35007KT M05/M06 A303 RMK A01 T10541062  RH  094%=      5-min Rain = 0
KSP1 090900Z 35006KT M05/M06 A303 RMK A01 T10541062  RH  094%=      5-min Rain = 0
KSP1 090905Z 34006KT M06/M07 A303 RMK A01 T10561065  RH  094%=      5-min Rain = 0
KSP1 090910Z 34005KT M06/M07 A303 RMK A01 T10591068  RH  093%=      5-min Rain = 0
KSP1 090915Z 34006KT M06/M07 A303 RMK A01 T10621071  RH  094%=      5-min Rain = 0
KSP1 090920Z 33006KT M06/M07 A303 RMK A01 T10631071  RH  094%=      5-min Rain = 0
KSP1 090925Z 33006KT M06/M07 A303 RMK A01 T10621069  RH  095%=      5-min Rain = 0
KSP1 090930Z 33006KT M06/M07 A303 RMK A01 T10641072  RH  094%=      5-min Rain = 0
KSP1 090935Z 33007KT M07/M07 A303 RMK A01 T10651073  RH  094%=      5-min Rain = 0
KSP1 090940Z 33007KT M07/M07 A303 RMK A01 T10661073  RH  094%=      5-min Rain = 0
KSP1 090945Z 33007KT M07/M07 A303 RMK A01 T10661074  RH  094%=      5-min Rain = 0
KSP1 090950Z 33007KT M07/M07 A303 RMK A01 T10661073  RH  095%=      5-min Rain = 0
KSP1 090955Z 32007KT M07/M07 A303 RMK A01 T10661073  RH  094%=      5-min Rain = 0
KSP1 091000Z 32008KT M07/M07 A303 RMK A01 T10661073  RH  094%=      5-min Rain = 0
KSP1 091005Z 33008KT M06/M07 A303 RMK A01 T10641072  RH  094%=      5-min Rain = 0
KSP1 091010Z 33008KT M06/M07 A303 RMK A01 T10631071  RH  094%=      5-min Rain = 0
KSP1 091015Z 32008KT M06/M07 A3031 RMK A01 T10621071  RH  094%=      5-min Rain = 0
KSP1 091020Z 32008KT M06/M07 A3031 RMK A01 T10621070  RH  094%=      5-min Rain = 0
KSP1 091025Z 32008KT M06/M07 A3031 RMK A01 T10611070  RH  094%=      5-min Rain = 0
KSP1 091030Z 33007KT M06/M07 A3031 RMK A01 T10611069  RH  094%=      5-min Rain = 0
KSP1 091035Z 32007KT M06/M07 A3031 RMK A01 T10611070  RH  093%=      5-min Rain = 0
KSP1 091040Z 33007KT M06/M07 A3031 RMK A01 T10611070  RH  093%=      5-min Rain = 0
KSP1 091045Z 32007KT M06/M07 A3031 RMK A01 T10621071  RH  093%=      5-min Rain = 0
KSP1 091050Z 32008KT M06/M07 A3031 RMK A01 T10621072  RH  093%=      5-min Rain = 0
KSP1 091055Z 32008KT M06/M07 A3031 RMK A01 T10621072  RH  093%=      5-min Rain = 0
KSP1 091100Z 32008KT M06/M07 A3031 RMK A01 T10621072  RH  093%=      5-min Rain = 0
KSP1 091105Z 33007KT M06/M07 A3031 RMK A01 T10631073  RH  092%=      5-min Rain = 0
KSP1 091110Z 33007KT M06/M07 A3031 RMK A01 T10641074  RH  092%=      5-min Rain = 0
KSP1 091115Z 32006KT M07/M08 A3031 RMK A01 T10651075  RH  092%=      5-min Rain = 0
KSP1 091120Z 33007KT M07/M08 A3031 RMK A01 T10651075  RH  092%=      5-min Rain = 0
KSP1 091125Z 33007KT M07/M08 A3031 RMK A01 T10661076  RH  092%=      5-min Rain = 0
KSP1 091130Z 33006KT M07/M08 A3032 RMK A01 T10671078  RH  092%=      5-min Rain = 0
KSP1 091135Z 33007KT M07/M08 A3032 RMK A01 T10701080  RH  092%=      5-min Rain = 0
KSP1 091140Z 33006KT M07/M08 A3032 RMK A01 T10711081  RH  092%=      5-min Rain = 0
KSP1 091145Z 33006KT M07/M08 A3032 RMK A01 T10711082  RH  092%=      5-min Rain = 0
KSP1 091150Z 33006KT M07/M08 A3033 RMK A01 T10721082  RH  092%=      5-min Rain = 0
KSP1 091155Z 33007KT M07/M08 A3033 RMK A01 T10721082  RH  092%=      5-min Rain = 0
KSP1 091200Z 33007KT M07/M08 A3033 RMK A01 T10721082  RH  092%=      5-min Rain = 0
KSP1 091205Z 33007KT M07/M08 A3033 RMK A01 T10731083  RH  092%=      5-min Rain = 0
KSP1 091210Z 33006KT M07/M08 A3033 RMK A01 T10731083  RH  092%=      5-min Rain = 0
KSP1 091215Z 33006KT M07/M08 A3033 RMK A01 T10741084  RH  092%=      5-min Rain = 0
KSP1 091220Z 33006KT M08/M09 A3034 RMK A01 T10761086  RH  092%=      5-min Rain = 0
KSP1 091225Z 33006KT M08/M09 A3034 RMK A01 T10771087  RH  092%=      5-min Rain = 0
KSP1 091230Z 33007KT M08/M09 A3034 RMK A01 T10801091  RH  092%=      5-min Rain = 0
KSP1 091235Z 33007KT M08/M09 A3034 RMK A01 T10821092  RH  092%=      5-min Rain = 0
KSP1 091240Z 33007KT M08/M09 A3034 RMK A01 T10821091  RH  093%=      5-min Rain = 0
KSP1 091245Z 33007KT M08/M09 A3034 RMK A01 T10801089  RH  093%=      5-min Rain = 0
KSP1 091250Z 32007KT M08/M09 A3034 RMK A01 T10781088  RH  093%=      5-min Rain = 0
KSP1 091255Z 32007KT M08/M09 A3034 RMK A01 T10771088  RH  092%=      5-min Rain = 0
KSP1 091300Z 32007KT M08/M09 A3034 RMK A01 T10781089  RH  091%=      5-min Rain = 0
KSP1 091305Z 32007KT M08/M09 A3034 RMK A01 T10771088  RH  091%=      5-min Rain = 0
KSP1 091310Z 32007KT M08/M09 A3035 RMK A01 T10761088  RH  091%=      5-min Rain = 0
KSP1 091315Z 32008KT M08/M09 A3035 RMK A01 T10751088  RH  090%=      5-min Rain = 0
KSP1 091320Z 32007KT M07/M09 A3035 RMK A01 T10741089  RH  089%=      5-min Rain = 0
KSP1 091325Z 32007KT M07/M09 A3035 RMK A01 T10741090  RH  088%=      5-min Rain = 0
KSP1 091330Z 32007KT M08/M09 A3035 RMK A01 T10751091  RH  088%=      5-min Rain = 0
KSP1 091335Z 32007KT M08/M09 A3036 RMK A01 T10761092  RH  088%=      5-min Rain = 0
KSP1 091340Z 32007KT M08/M09 A3036 RMK A01 T10761093  RH  088%=      5-min Rain = 0
KSP1 091345Z 33007KT M08/M09 A3036 RMK A01 T10751092  RH  087%=      5-min Rain = 0
KSP1 091350Z 33007KT M07/M09 A3036 RMK A01 T10731092  RH  086%=      5-min Rain = 0
KSP1 091355Z 33007KT M07/M09 A3036 RMK A01 T10721092  RH  086%=      5-min Rain = 0
KSP1 091400Z 32007KT M07/M09 A3036 RMK A01 T10711091  RH  085%=      5-min Rain = 0
KSP1 091405Z 33007KT M07/M09 A3036 RMK A01 T10701091  RH  085%=      5-min Rain = 0
KSP1 091410Z 33007KT M07/M09 A3036 RMK A01 T10681090  RH  084%=      5-min Rain = 0
KSP1 091415Z 33007KT M07/M09 A3037 RMK A01 T10671090  RH  084%=      5-min Rain = 0
KSP1 091420Z 33006KT M07/M09 A3037 RMK A01 T10651089  RH  083%=      5-min Rain = 0
KSP1 091425Z 33006KT M06/M09 A3037 RMK A01 T10631088  RH  083%=      5-min Rain = 0
KSP1 091430Z 33007KT M06/M09 A3037 RMK A01 T10621087  RH  082%=      5-min Rain = 0
KSP1 091435Z 34006KT M06/M09 A3037 RMK A01 T10591086  RH  082%=      5-min Rain = 0
KSP1 091440Z 33007KT M06/M09 A3037 RMK A01 T10581085  RH  081%=      5-min Rain = 0
KSP1 091445Z 33007KT M06/M08 A3038 RMK A01 T10551083  RH  081%=      5-min Rain = 0
KSP1 091450Z 33008KT M05/M08 A3038 RMK A01 T10531083  RH  079%=      5-min Rain = 0
KSP1 091455Z 33007KT M05/M08 A3038 RMK A01 T10501081  RH  079%=      5-min Rain = 0
KSP1 091500Z 33006KT M05/M08 A3038 RMK A01 T10481078  RH  079%=      5-min Rain = 0
KSP1 091505Z 33005KT M05/M08 A3038 RMK A01 T10451076  RH  079%=      5-min Rain = 0
KSP1 091510Z 34005KT M04/M08 A3039 RMK A01 T10441076  RH  078%=      5-min Rain = 0
KSP1 091515Z 35004KT M04/M08 A3039 RMK A01 T10441076  RH  078%=      5-min Rain = 0
KSP1 091520Z 36002KT M04/M07 A3039 RMK A01 T10401072  RH  078%=      5-min Rain = 0
KSP1 091525Z 02002KT M04/M07 A3039 RMK A01 T10351069  RH  077%=      5-min Rain = 0
KSP1 091530Z 02003KT M03/M07 A3039 RMK A01 T10311070  RH  075%=      5-min Rain = 0
KSP1 091535Z 02002KT M03/M07 A304 RMK A01 T10311069  RH  075%=      5-min Rain = 0
KSP1 091540Z 35003KT M03/M07 A304 RMK A01 T10291068  RH  074%=      5-min Rain = 0
KSP1 091545Z 36003KT M03/M07 A304 RMK A01 T10261065  RH  074%=      5-min Rain = 0
KSP1 091550Z 01002KT M02/M07 A304 RMK A01 T10241065  RH  073%=      5-min Rain = 0
KSP1 091555Z 34002KT M02/M07 A304 RMK A01 T10211065  RH  072%=      5-min Rain = 0
KSP1 091600Z 33003KT M02/M06 A304 RMK A01 T10161062  RH  071%=      5-min Rain = 0
KSP1 091605Z 32003KT M01/M06 A304 RMK A01 T10141061  RH  070%=      5-min Rain = 0
KSP1 091610Z 32004KT M01/M06 A304 RMK A01 T10121060  RH  070%=      5-min Rain = 0
KSP1 091615Z 32004KT M01/M06 A3041 RMK A01 T10091061  RH  068%=      5-min Rain = 0
KSP1 091620Z 33004KT M01/M06 A3041 RMK A01 T10071064  RH  065%=      5-min Rain = 0
KSP1 091625Z 33004KT M00/M06 A3041 RMK A01 T10041063  RH  064%=      5-min Rain = 0
KSP1 091630Z 33003KT 00/06 A3041 RMK A01 T00000-64  RH  062%=      5-min Rain = 0
KSP1 091635Z 33003KT 00/M07 A3041 RMK A01 T00041065  RH  060%=      5-min Rain = 0
KSP1 091640Z 33003KT 01/M07 A3041 RMK A01 T00071065  RH  058%=      5-min Rain = 0
KSP1 091645Z 32002KT 01/M07 A304 RMK A01 T00101065  RH  057%=      5-min Rain = 0
KSP1 091650Z 31002KT 01/M06 A3041 RMK A01 T00141063  RH  057%=      5-min Rain = 0
KSP1 091655Z 29003KT 01/M06 A3041 RMK A01 T00141063  RH  056%=      5-min Rain = 0
KSP1 091700Z 31003KT 01/M07 A304 RMK A01 T00141066  RH  055%=      5-min Rain = 0
KSP1 091705Z 32003KT 02/M07 A304 RMK A01 T00151066  RH  055%=      5-min Rain = 0
KSP1 091710Z 31003KT 02/M07 A304 RMK A01 T00161068  RH  054%=      5-min Rain = 0
KSP1 091715Z 32003KT 02/M06 A304 RMK A01 T00181064  RH  054%=      5-min Rain = 0
KSP1 091720Z 31003KT 02/M07 A304 RMK A01 T00201065  RH  053%=      5-min Rain = 0
KSP1 091725Z 31003KT 02/M07 A304 RMK A01 T00211066  RH  052%=      5-min Rain = 0
KSP1 091730Z 32003KT 02/M07 A304 RMK A01 T00231066  RH  052%=      5-min Rain = 0
KSP1 091735Z 33003KT 03/M07 A304 RMK A01 T00261069  RH  050%=      5-min Rain = 0
KSP1 091740Z 33004KT 03/M07 A304 RMK A01 T00261071  RH  049%=      5-min Rain = 0
KSP1 091745Z 33004KT 03/M07 A304 RMK A01 T00271071  RH  048%=      5-min Rain = 0
KSP1 091750Z 34004KT 03/M07 A304 RMK A01 T00281070  RH  049%=      5-min Rain = 0
KSP1 091755Z 32003KT 03/M07 A304 RMK A01 T00291066  RH  049%=      5-min Rain = 0
KSP1 091800Z 31003KT 03/M07 A304 RMK A01 T00311065  RH  049%=      5-min Rain = 0
KSP1 091805Z 31003KT 03/M07 A304 RMK A01 T00311065  RH  050%=      5-min Rain = 0
KSP1 091810Z 31003KT 03/M06 A3039 RMK A01 T00321060  RH  051%=      5-min Rain = 0
KSP1 091815Z 31003KT 03/M06 A3039 RMK A01 T00321061  RH  050%=      5-min Rain = 0
KSP1 091820Z 32003KT 03/M06 A3038 RMK A01 T00341062  RH  049%=      5-min Rain = 0
KSP1 091825Z 33003KT 04/M06 A3038 RMK A01 T00371063  RH  048%=      5-min Rain = 0
KSP1 091830Z 32003KT 04/M07 A3038 RMK A01 T00391066  RH  046%=      5-min Rain = 0
KSP1 091835Z 33003KT 04/M07 A3037 RMK A01 T00411067  RH  045%=      5-min Rain = 0
KSP1 091840Z 33003KT 04/M07 A3037 RMK A01 T00421067  RH  045%=      5-min Rain = 0
KSP1 091845Z 34003KT 04/M07 A3037 RMK A01 T00441068  RH  044%=      5-min Rain = 0
KSP1 091850Z 33004KT 04/M07 A3037 RMK A01 T00421073  RH  043%=      5-min Rain = 0
KSP1 091855Z 34003KT 04/M07 A3037 RMK A01 T00421074  RH  042%=      5-min Rain = 0
KSP1 091900Z 34002KT 04/M07 A3036 RMK A01 T00441071  RH  043%=      5-min Rain = 0
KSP1 091905Z 34004KT 05/M07 A3036 RMK A01 T00461074  RH  042%=      5-min Rain = 0
KSP1 091910Z 34004KT 04/M08 A3036 RMK A01 T00441075  RH  042%=      5-min Rain = 0
KSP1 091915Z 33005KT 04/M08 A3036 RMK A01 T00431076  RH  042%=      5-min Rain = 0
KSP1 091920Z 34004KT 04/M08 A3036 RMK A01 T00431076  RH  042%=      5-min Rain = 0
KSP1 091925Z 34004KT 04/M08 A3035 RMK A01 T00441078  RH  041%=      5-min Rain = 0
KSP1 091930Z 33004KT 04/M08 A3035 RMK A01 T00441078  RH  041%=      5-min Rain = 0
KSP1 091935Z 33004KT 04/M08 A3035 RMK A01 T00441075  RH  042%=      5-min Rain = 0
KSP1 091940Z 34005KT 05/M08 A3035 RMK A01 T00451082  RH  039%=      5-min Rain = 0
KSP1 091945Z 34005KT 04/M09 A3035 RMK A01 T00441085  RH  039%=      5-min Rain = 0
KSP1 091950Z 34005KT 04/M08 A3035 RMK A01 T00441081  RH  040%=      5-min Rain = 0
KSP1 091955Z 33005KT 05/M08 A3035 RMK A01 T00461082  RH  039%=      5-min Rain = 0
KSP1 092000Z 32005KT 05/M07 A3035 RMK A01 T00471074  RH  041%=      5-min Rain = 0
KSP1 092005Z 34005KT 05/M08 A3035 RMK A01 T00461077  RH  040%=      5-min Rain = 0
KSP1 092010Z 34005KT 05/M08 A3035 RMK A01 T00451079  RH  040%=      5-min Rain = 0
KSP1 092015Z 34005KT 05/M08 A3035 RMK A01 T00471078  RH  040%=      5-min Rain = 0
KSP1 092020Z 34005KT 05/M08 A3035 RMK A01 T00481078  RH  040%=      5-min Rain = 0
KSP1 092025Z 34005KT 05/M08 A3035 RMK A01 T00481081  RH  039%=      5-min Rain = 0
KSP1 092030Z 34005KT 05/M07 A3035 RMK A01 T00481073  RH  041%=      5-min Rain = 0
KSP1 092035Z 33005KT 05/M07 A3034 RMK A01 T00491074  RH  040%=      5-min Rain = 0
KSP1 092040Z 33005KT 05/M08 A3034 RMK A01 T00491077  RH  039%=      5-min Rain = 0
KSP1 092045Z 33004KT 05/M07 A3035 RMK A01 T00501069  RH  042%=      5-min Rain = 0
KSP1 092050Z 33005KT 05/M07 A3035 RMK A01 T00501074  RH  040%=      5-min Rain = 0
KSP1 092055Z 34004KT 05/M07 A3034 RMK A01 T00511067  RH  042%=      5-min Rain = 0
KSP1 092100Z 33005KT 05/M07 A3034 RMK A01 T00521070  RH  041%=      5-min Rain = 0
KSP1 092105Z 32004KT 05/M07 A3034 RMK A01 T00521068  RH  042%=      5-min Rain = 0
KSP1 092110Z 33005KT 05/M07 A3035 RMK A01 T00521071  RH  041%=      5-min Rain = 0
KSP1 092115Z 32006KT 05/M07 A3035 RMK A01 T00511072  RH  040%=      5-min Rain = 0
KSP1 092120Z 33005KT 05/M08 A3035 RMK A01 T00501080  RH  038%=      5-min Rain = 0
KSP1 092125Z 34006KT 05/M08 A3035 RMK A01 T00501083  RH  038%=      5-min Rain = 0
KSP1 092130Z 33006KT 05/M08 A3035 RMK A01 T00501077  RH  039%=      5-min Rain = 0
KSP1 092135Z 35007KT 05/M07 A3035 RMK A01 T00491066  RH  043%=      5-min Rain = 0
KSP1 092140Z 35007KT 05/M07 A3034 RMK A01 T00471065  RH  044%=      5-min Rain = 0
KSP1 092145Z 35006KT 05/M06 A3034 RMK A01 T00471059  RH  046%=      5-min Rain = 0
KSP1 092150Z 00005KT 05/M06 A3034 RMK A01 T00471057  RH  047%=      5-min Rain = 0
KSP1 092155Z 36005KT 05/M06 A3034 RMK A01 T00461058  RH  047%=      5-min Rain = 0
KSP1 092200Z 35007KT 05/M05 A3034 RMK A01 T00451052  RH  049%=      5-min Rain = 0
KSP1 092205Z 35006KT 05/M05 A3034 RMK A01 T00451047  RH  051%=      5-min Rain = 0
KSP1 092210Z 34007KT 05/M05 A3034 RMK A01 T00451047  RH  051%=      5-min Rain = 0
KSP1 092215Z 35007KT 05/M05 A3034 RMK A01 T00451045  RH  052%=      5-min Rain = 0
KSP1 092220Z 34006KT 05/M04 A3034 RMK A01 T00451042  RH  054%=      5-min Rain = 0
KSP1 092225Z 34006KT 05/M04 A3034 RMK A01 T00451039  RH  055%=      5-min Rain = 0
KSP1 092230Z 34006KT 05/M04 A3034 RMK A01 T00451037  RH  056%=      5-min Rain = 0
KSP1 092235Z 34005KT 04/M04 A3034 RMK A01 T00441035  RH  057%=      5-min Rain = 0
KSP1 092240Z 33005KT 04/M04 A3034 RMK A01 T00441035  RH  057%=      5-min Rain = 0
KSP1 092245Z 33005KT 04/M04 A3034 RMK A01 T00431035  RH  057%=      5-min Rain = 0
KSP1 092250Z 34005KT 04/M03 A3035 RMK A01 T00431033  RH  058%=      5-min Rain = 0
KSP1 092255Z 34005KT 04/M03 A3035 RMK A01 T00411031  RH  060%=      5-min Rain = 0
KSP1 092300Z 34005KT 04/M03 A3035 RMK A01 T00401030  RH  061%=      5-min Rain = 0
KSP1 092305Z 34005KT 04/M03 A3035 RMK A01 T00381029  RH  062%=      5-min Rain = 0
KSP1 092310Z 32004KT 04/M03 A3035 RMK A01 T00361027  RH  064%=      5-min Rain = 0
KSP1 092315Z 31004KT 03/M03 A3035 RMK A01 T00331027  RH  065%=      5-min Rain = 0
KSP1 092320Z 30004KT 03/M03 A3034 RMK A01 T00311029  RH  065%=      5-min Rain = 0
KSP1 092325Z 30005KT 03/M03 A3035 RMK A01 T00291030  RH  066%=      5-min Rain = 0
KSP1 092330Z 29005KT 03/M03 A3035 RMK A01 T00251030  RH  067%=      5-min Rain = 0
KSP1 092335Z 29005KT 03/M03 A3035 RMK A01 T00251030  RH  068%=      5-min Rain = 0
KSP1 092340Z 29006KT 02/M03 A3035 RMK A01 T00201030  RH  070%=      5-min Rain = 0
KSP1 092345Z 30005KT 02/M03 A3035 RMK A01 T00181030  RH  071%=      5-min Rain = 0
KSP1 092350Z 30005KT 02/M03 A3035 RMK A01 T00151030  RH  072%=      5-min Rain = 0
KSP1 092355Z 31004KT 01/M03 A3035 RMK A01 T00111032  RH  073%=      5-min Rain = 0
KSP1 100000Z 30004KT 01/M03 A3034 RMK A01 T00071033  RH  075%=      5-min Rain = 0
KSP1 100005Z 31004KT 00/M03 A3034 RMK A01 T00041032  RH  077%=      5-min Rain = 0
KSP1 100010Z 31004KT 00/M03 A3034 RMK A01 T00021032  RH  078%=      5-min Rain = 0
KSP1 100015Z 31004KT 00/03 A3034 RMK A01 T00-00-32  RH  080%=      5-min Rain = 0
KSP1 100020Z 31005KT M00/M03 A3034 RMK A01 T10021031  RH  081%=      5-min Rain = 0
KSP1 100025Z 31004KT M00/M03 A3034 RMK A01 T10021031  RH  082%=      5-min Rain = 0
KSP1 100030Z 29003KT M00/M03 A3034 RMK A01 T10011030  RH  081%=      5-min Rain = 0
KSP1 100035Z 31003KT M00/M03 A3034 RMK A01 T10031032  RH  081%=      5-min Rain = 0
KSP1 100040Z 30003KT M01/M03 A3034 RMK A01 T10061032  RH  083%=      5-min Rain = 0
KSP1 100045Z 31004KT M01/M03 A3034 RMK A01 T10051031  RH  083%=      5-min Rain = 0
KSP1 100050Z 33005KT M01/M03 A3034 RMK A01 T10071033  RH  083%=      5-min Rain = 0
KSP1 100055Z 34006KT M01/M03 A3035 RMK A01 T10111034  RH  085%=      5-min Rain = 0
KSP1 100100Z 34005KT M01/M03 A3035 RMK A01 T10131034  RH  086%=      5-min Rain = 0
KSP1 100105Z 35005KT M01/M03 A3035 RMK A01 T10141033  RH  087%=      5-min Rain = 0
KSP1 100110Z 35005KT M01/M03 A3035 RMK A01 T10131031  RH  088%=      5-min Rain = 0
KSP1 100115Z 34005KT M01/M03 A3035 RMK A01 T10131032  RH  087%=      5-min Rain = 0
KSP1 100120Z 34006KT M02/M03 A3035 RMK A01 T10151034  RH  088%=      5-min Rain = 0
KSP1 100125Z 33006KT M02/M03 A3036 RMK A01 T10161033  RH  089%=      5-min Rain = 0
KSP1 100130Z 34007KT M02/M03 A3036 RMK A01 T10151033  RH  088%=      5-min Rain = 0
KSP1 100135Z 33006KT M02/M03 A3036 RMK A01 T10161033  RH  089%=      5-min Rain = 0
KSP1 100140Z 32006KT M02/M03 A3036 RMK A01 T10161034  RH  088%=      5-min Rain = 0
KSP1 100145Z 32005KT M02/M04 A3036 RMK A01 T10181035  RH  088%=      5-min Rain = 0
KSP1 100150Z 30005KT M02/M04 A3037 RMK A01 T10191036  RH  089%=      5-min Rain = 0
KSP1 100155Z 28005KT M02/M04 A3036 RMK A01 T10201036  RH  089%=      5-min Rain = 0
KSP1 100200Z 29004KT M02/M04 A3036 RMK A01 T10201036  RH  089%=      5-min Rain = 0
KSP1 100205Z 30004KT M02/M04 A3036 RMK A01 T10201036  RH  089%=      5-min Rain = 0
KSP1 100210Z 30004KT M02/M04 A3037 RMK A01 T10191035  RH  089%=      5-min Rain = 0
KSP1 100215Z 30003KT M02/M04 A3037 RMK A01 T10201036  RH  089%=      5-min Rain = 0
KSP1 100220Z 31002KT M02/M04 A3037 RMK A01 T10201037  RH  089%=      5-min Rain = 0
KSP1 100225Z 31003KT M02/M04 A3037 RMK A01 T10211037  RH  089%=      5-min Rain = 0
KSP1 100230Z 32003KT M02/M04 A3038 RMK A01 T10221038  RH  089%=      5-min Rain = 0
KSP1 100235Z 31002KT M02/M04 A3037 RMK A01 T10231039  RH  089%=      5-min Rain = 0
KSP1 100240Z 33003KT M02/M04 A3038 RMK A01 T10231038  RH  090%=      5-min Rain = 0
KSP1 100245Z 33004KT M02/M04 A3038 RMK A01 T10231038  RH  090%=      5-min Rain = 0
KSP1 100250Z 34005KT M02/M04 A3037 RMK A01 T10231038  RH  090%=      5-min Rain = 0
KSP1 100255Z 34005KT M02/M04 A3037 RMK A01 T10241039  RH  090%=      5-min Rain = 0
KSP1 100300Z 34004KT M03/M04 A3037 RMK A01 T10261041  RH  090%=      5-min Rain = 0
KSP1 100305Z 32004KT M03/M04 A3037 RMK A01 T10261039  RH  091%=      5-min Rain = 0
KSP1 100310Z 31002KT M03/M04 A3037 RMK A01 T10251039  RH  091%=      5-min Rain = 0
KSP1 100315Z 30002KT M03/M04 A3038 RMK A01 T10271041  RH  090%=      5-min Rain = 0
KSP1 100320Z 30003KT M03/M04 A3037 RMK A01 T10281041  RH  091%=      5-min Rain = 0
KSP1 100325Z 29002KT M03/M04 A3037 RMK A01 T10281042  RH  091%=      5-min Rain = 0
KSP1 100330Z 29002KT M03/M04 A3037 RMK A01 T10301043  RH  091%=      5-min Rain = 0
KSP1 100335Z 30003KT M03/M04 A3037 RMK A01 T10301042  RH  092%=      5-min Rain = 0
KSP1 100340Z 31003KT M03/M04 A3037 RMK A01 T10311044  RH  091%=      5-min Rain = 0
KSP1 100345Z 32003KT M03/M04 A3037 RMK A01 T10321044  RH  092%=      5-min Rain = 0
KSP1 100350Z 32003KT M03/M04 A3037 RMK A01 T10321043  RH  092%=      5-min Rain = 0
KSP1 100355Z 33003KT M03/M04 A3037 RMK A01 T10321043  RH  092%=      5-min Rain = 0
KSP1 100400Z 32003KT M03/M04 A3037 RMK A01 T10331044  RH  092%=      5-min Rain = 0
KSP1 100405Z 33003KT M03/M04 A3037 RMK A01 T10331044  RH  093%=      5-min Rain = 0
KSP1 100410Z 34004KT M03/M04 A3038 RMK A01 T10331043  RH  093%=      5-min Rain = 0
KSP1 100415Z 34006KT M03/M04 A3038 RMK A01 T10321042  RH  093%=      5-min Rain = 0
KSP1 100420Z 33006KT M03/M04 A3038 RMK A01 T10301040  RH  093%=      5-min Rain = 0
KSP1 100425Z 33004KT M03/M04 A3038 RMK A01 T10281039  RH  093%=      5-min Rain = 0
KSP1 100430Z 33005KT M03/M04 A3038 RMK A01 T10261038  RH  092%=      5-min Rain = 0
KSP1 100435Z 33005KT M03/M04 A3038 RMK A01 T10251038  RH  091%=      5-min Rain = 0
KSP1 100440Z 33004KT M03/M04 A3038 RMK A01 T10261039  RH  091%=      5-min Rain = 0
KSP1 100445Z 33003KT M03/M04 A3038 RMK A01 T10271040  RH  091%=      5-min Rain = 0
KSP1 100450Z 32003KT M03/M04 A3037 RMK A01 T10261039  RH  091%=      5-min Rain = 0
KSP1 100455Z 31003KT M03/M04 A3037 RMK A01 T10261039  RH  091%=      5-min Rain = 0
KSP1 100500Z 32004KT M03/M04 A3037 RMK A01 T10281041  RH  091%=      5-min Rain = 0
KSP1 100505Z 31004KT M03/M04 A3037 RMK A01 T10291043  RH  091%=      5-min Rain = 0
KSP1 100510Z 31004KT M03/M04 A3037 RMK A01 T10311044  RH  091%=      5-min Rain = 0
KSP1 100515Z 32004KT M03/M05 A3037 RMK A01 T10321046  RH  091%=      5-min Rain = 0
KSP1 100520Z 33005KT M03/M05 A3037 RMK A01 T10331046  RH  091%=      5-min Rain = 0
KSP1 100525Z 33006KT M03/M05 A3037 RMK A01 T10331046  RH  092%=      5-min Rain = 0
KSP1 100530Z 33006KT M03/M04 A3037 RMK A01 T10321043  RH  092%=      5-min Rain = 0
KSP1 100535Z 34005KT M03/M04 A3037 RMK A01 T10291041  RH  092%=      5-min Rain = 0
KSP1 100540Z 34005KT M03/M04 A3037 RMK A01 T10281040  RH  092%=      5-min Rain = 0
KSP1 100545Z 34004KT M03/M04 A3037 RMK A01 T10271040  RH  091%=      5-min Rain = 0
KSP1 100550Z 34004KT M03/M04 A3037 RMK A01 T10281042  RH  091%=      5-min Rain = 0
KSP1 100555Z 32004KT M03/M04 A3037 RMK A01 T10281041  RH  091%=      5-min Rain = 0

Page generated in 0.0182 seconds.